Time;durP1;ratioP1;P1;durP2;ratioP2;P2;SDS_P1;SDS_P2;PMS_P1;PMS_P2;Temp;Humidity;BMP_temperature;BMP_pressure;BME280_temperature;BME280_humidity;BME280_pressure;Samples;Min_cycle;Max_cycle;Signal;HPM_P1;HPM_P2
2023/10/21 00:00:51;;;;;;;19.02;10.55;;;;;;;;;;5043208;28;25055;-61
2023/10/21 00:03:17;;;;;;;25.42;12.88;;;;;;;;;;5044128;28;25141;-61
2023/10/21 00:05:43;;;;;;;20.48;12.20;;;;;;;;;;5045717;28;25053;-60
2023/10/21 00:08:09;;;;;;;19.90;11.00;;;;;;;;;;5043114;28;25095;-62
2023/10/21 00:10:35;;;;;;;20.67;11.20;;;;;;;;;;5046340;28;25087;-61
2023/10/21 00:13:01;;;;;;;28.52;14.90;;;;;;;;;;5047049;28;25047;-60
2023/10/21 00:15:27;;;;;;;23.77;12.95;;;;;;;;;;5042890;28;25088;-60
2023/10/21 00:17:53;;;;;;;25.98;11.90;;;;;;;;;;5046945;28;25083;-60
2023/10/21 00:20:19;;;;;;;29.48;13.40;;;;;;;;;;5043166;28;25071;-60
2023/10/21 00:22:45;;;;;;;29.38;13.57;;;;;;;;;;5043441;28;25067;-60
2023/10/21 00:25:11;;;;;;;30.58;13.65;;;;;;;;;;5043913;28;25067;-61
2023/10/21 00:27:37;;;;;;;21.20;10.27;;;;;;;;;;5046692;28;25057;-60
2023/10/21 00:30:03;;;;;;;23.17;11.48;;;;;;;;;;5040646;28;25063;-60
2023/10/21 00:32:29;;;;;;;26.83;13.32;;;;;;;;;;5043183;28;25049;-60
2023/10/21 00:34:54;;;;;;;31.60;12.88;;;;;;;;;;5039139;28;25119;-62
2023/10/21 00:37:20;;;;;;;22.52;12.00;;;;;;;;;;5046159;28;25133;-60
2023/10/21 00:39:46;;;;;;;18.80;10.27;;;;;;;;;;5046254;28;25137;-60
2023/10/21 00:42:12;;;;;;;23.58;13.88;;;;;;;;;;5047078;28;25122;-61
2023/10/21 00:44:38;;;;;;;24.58;10.93;;;;;;;;;;5043949;28;25102;-61
2023/10/21 00:47:04;;;;;;;27.33;11.70;;;;;;;;;;5042907;28;25091;-61
2023/10/21 00:49:31;;;;;;;22.77;10.25;;;;;;;;;;5043905;28;25056;-61
2023/10/21 00:51:57;;;;;;;17.77;9.68;;;;;;;;;;5044021;28;25072;-59
2023/10/21 00:54:25;;;;;;;23.52;12.75;;;;;;;;;;5040842;28;25107;-61
2023/10/21 00:56:51;;;;;;;14.07;9.73;;;;;;;;;;5041576;28;25054;-59
2023/10/21 00:59:18;;;;;;;29.42;13.50;;;;;;;;;;5045225;28;25054;-60
2023/10/21 01:01:44;;;;;;;19.55;11.73;;;;;;;;;;5043509;28;25053;-60
2023/10/21 01:04:10;;;;;;;18.88;11.05;;;;;;;;;;5045452;28;25049;-61
2023/10/21 01:06:36;;;;;;;20.25;10.82;;;;;;;;;;5044023;28;25091;-60
2023/10/21 01:09:02;;;;;;;23.33;10.55;;;;;;;;;;5039424;28;25105;-61
2023/10/21 01:11:28;;;;;;;24.52;11.48;;;;;;;;;;5045471;28;25067;-61
2023/10/21 01:13:56;;;;;;;24.92;12.10;;;;;;;;;;5040313;28;25099;-61
2023/10/21 01:16:22;;;;;;;12.82;8.30;;;;;;;;;;5045686;28;25155;-60
2023/10/21 01:18:48;;;;;;;17.95;10.63;;;;;;;;;;5039527;28;25089;-60
2023/10/21 01:21:14;;;;;;;22.60;9.90;;;;;;;;;;5041792;28;25071;-62
2023/10/21 01:23:40;;;;;;;16.25;11.13;;;;;;;;;;5041533;28;25057;-61
2023/10/21 01:26:06;;;;;;;24.65;10.82;;;;;;;;;;5040546;28;25140;-61
2023/10/21 01:28:35;;;;;;;19.52;10.48;;;;;;;;;;5043059;28;25047;-60
2023/10/21 01:31:01;;;;;;;16.90;9.35;;;;;;;;;;5044261;28;25069;-61
2023/10/21 01:33:27;;;;;;;31.45;11.48;;;;;;;;;;5044238;28;25132;-61
2023/10/21 01:35:53;;;;;;;15.73;8.40;;;;;;;;;;5041998;28;25074;-60
2023/10/21 01:38:19;;;;;;;18.02;9.25;;;;;;;;;;5046677;28;25078;-60
2023/10/21 01:40:46;;;;;;;21.08;11.45;;;;;;;;;;5040745;28;25064;-60
2023/10/21 01:43:12;;;;;;;25.13;13.52;;;;;;;;;;5041413;28;25148;-59
2023/10/21 01:45:38;;;;;;;18.73;10.70;;;;;;;;;;5045456;28;25104;-61
2023/10/21 01:48:04;;;;;;;21.90;10.23;;;;;;;;;;5044551;28;25077;-61
2023/10/21 01:50:30;;;;;;;15.32;9.88;;;;;;;;;;5043118;28;25095;-61
2023/10/21 01:52:57;;;;;;;20.02;8.88;;;;;;;;;;5042260;28;25064;-60
2023/10/21 01:55:23;;;;;;;17.55;10.23;;;;;;;;;;5043207;28;25096;-61
2023/10/21 01:57:49;;;;;;;22.83;10.30;;;;;;;;;;5041694;28;25097;-61
2023/10/21 02:00:22;;;;;;;22.60;10.00;;;;;;;;;;5042971;28;25131;-61
2023/10/21 02:02:55;;;;;;;27.20;12.52;;;;;;;;;;5044260;28;25072;-61
2023/10/21 02:05:22;;;;;;;23.20;11.63;;;;;;;;;;5042505;28;25045;-61
2023/10/21 02:07:48;;;;;;;22.98;10.82;;;;;;;;;;5036921;28;25068;-60
2023/10/21 02:10:14;;;;;;;24.63;11.50;;;;;;;;;;5046808;28;25146;-60
2023/10/21 02:12:40;;;;;;;19.67;10.32;;;;;;;;;;5043336;28;25081;-62
2023/10/21 02:15:14;;;;;;;20.17;10.57;;;;;;;;;;5038454;28;25063;-60
2023/10/21 02:17:41;;;;;;;26.45;12.82;;;;;;;;;;5047565;28;25081;-61
2023/10/21 02:20:07;;;;;;;20.05;9.82;;;;;;;;;;5042858;28;25056;-61
2023/10/21 02:22:33;;;;;;;20.20;10.60;;;;;;;;;;5048618;28;25073;-60
2023/10/21 02:24:59;;;;;;;20.27;10.02;;;;;;;;;;5043528;28;25076;-60
2023/10/21 02:27:25;;;;;;;18.48;10.88;;;;;;;;;;5040578;28;25114;-60
2023/10/21 02:29:51;;;;;;;20.05;11.65;;;;;;;;;;5048058;28;25051;-61
2023/10/21 02:32:17;;;;;;;19.33;11.00;;;;;;;;;;5037866;28;25078;-61
2023/10/21 02:34:44;;;;;;;23.23;10.60;;;;;;;;;;5042544;28;25132;-60
2023/10/21 02:37:10;;;;;;;18.63;9.63;;;;;;;;;;5025503;28;25054;-62
2023/10/21 02:39:36;;;;;;;15.07;8.57;;;;;;;;;;5045073;28;25144;-60
2023/10/21 02:42:02;;;;;;;14.98;10.20;;;;;;;;;;5046720;28;24847;-60
2023/10/21 02:44:29;;;;;;;18.30;9.90;;;;;;;;;;5046749;28;25058;-60
2023/10/21 02:46:55;;;;;;;17.00;10.23;;;;;;;;;;5046249;28;25047;-60
2023/10/21 02:49:21;;;;;;;18.27;8.57;;;;;;;;;;5045210;28;25073;-60
2023/10/21 02:51:47;;;;;;;20.95;11.15;;;;;;;;;;5047174;28;25108;-61
2023/10/21 02:54:13;;;;;;;21.63;10.73;;;;;;;;;;5045921;28;25040;-61
2023/10/21 02:56:43;;;;;;;16.90;9.65;;;;;;;;;;5045542;28;25051;-60
2023/10/21 02:59:09;;;;;;;17.60;9.93;;;;;;;;;;5043836;28;25040;-61
2023/10/21 03:01:35;;;;;;;20.33;9.65;;;;;;;;;;5046401;28;25064;-61
2023/10/21 03:04:01;;;;;;;25.73;10.65;;;;;;;;;;5042340;28;25095;-60
2023/10/21 03:06:27;;;;;;;21.20;10.63;;;;;;;;;;5044785;28;25084;-61
2023/10/21 03:08:53;;;;;;;21.70;9.13;;;;;;;;;;5045454;28;25067;-61
2023/10/21 03:11:19;;;;;;;21.10;8.98;;;;;;;;;;5042086;28;25076;-61
2023/10/21 03:13:45;;;;;;;18.33;10.38;;;;;;;;;;5041477;28;25122;-61
2023/10/21 03:16:14;;;;;;;17.23;10.13;;;;;;;;;;5044822;28;25084;-61
2023/10/21 03:18:41;;;;;;;16.52;8.98;;;;;;;;;;5044021;28;25113;-61
2023/10/21 03:21:07;;;;;;;9.75;6.40;;;;;;;;;;5046703;28;25056;-61
2023/10/21 03:23:33;;;;;;;22.23;10.43;;;;;;;;;;5046536;28;25081;-61
2023/10/21 03:26:01;;;;;;;14.95;10.75;;;;;;;;;;5041590;28;25150;-61
2023/10/21 03:28:27;;;;;;;21.52;9.77;;;;;;;;;;5045169;28;25072;-61
2023/10/21 03:30:56;;;;;;;17.35;11.00;;;;;;;;;;5044767;28;25106;-61
2023/10/21 03:33:23;;;;;;;20.33;10.10;;;;;;;;;;5044512;28;25071;-61
2023/10/21 03:35:59;;;;;;;18.15;11.02;;;;;;;;;;5041349;28;25121;-61
2023/10/21 03:38:25;;;;;;;18.40;10.23;;;;;;;;;;5046026;28;25057;-61
2023/10/21 03:41:17;;;;;;;21.83;10.73;;;;;;;;;;5044073;28;25140;-61
2023/10/21 03:43:43;;;;;;;27.08;10.63;;;;;;;;;;5034920;28;25069;-60
2023/10/21 03:46:20;;;;;;;24.27;12.77;;;;;;;;;;5037035;28;25063;-60
2023/10/21 03:48:46;;;;;;;19.80;11.68;;;;;;;;;;5044292;28;25094;-60
2023/10/21 03:51:12;;;;;;;18.73;12.02;;;;;;;;;;5041801;28;25151;-60
2023/10/21 03:53:40;;;;;;;30.60;11.38;;;;;;;;;;5046876;28;25156;-60
2023/10/21 03:56:06;;;;;;;19.35;10.15;;;;;;;;;;5037765;28;25068;-60
2023/10/21 03:58:32;;;;;;;22.08;11.30;;;;;;;;;;5041078;28;25044;-61
2023/10/21 04:00:58;;;;;;;25.58;11.23;;;;;;;;;;5039338;28;25056;-61
2023/10/21 04:03:25;;;;;;;17.50;8.02;;;;;;;;;;5042097;28;25120;-61
2023/10/21 04:05:51;;;;;;;22.75;12.20;;;;;;;;;;5041815;28;25064;-61
2023/10/21 04:08:17;;;;;;;27.70;10.90;;;;;;;;;;5038540;28;25054;-60
2023/10/21 04:10:44;;;;;;;24.55;11.52;;;;;;;;;;5042504;28;25059;-60
2023/10/21 04:13:10;;;;;;;25.50;11.88;;;;;;;;;;5039534;28;25061;-61
2023/10/21 04:15:36;;;;;;;28.15;12.27;;;;;;;;;;5037568;28;25054;-62
2023/10/21 04:18:02;;;;;;;20.73;10.65;;;;;;;;;;5043422;28;25057;-60
2023/10/21 04:20:28;;;;;;;21.42;8.52;;;;;;;;;;5030827;28;25100;-60
2023/10/21 04:22:54;;;;;;;21.08;10.18;;;;;;;;;;5043704;28;25090;-60
2023/10/21 04:25:21;;;;;;;17.20;9.93;;;;;;;;;;5041619;28;25161;-60
2023/10/21 04:27:47;;;;;;;18.27;10.10;;;;;;;;;;5039269;28;25048;-61
2023/10/21 04:30:13;;;;;;;18.55;9.60;;;;;;;;;;5036979;28;25097;-61
2023/10/21 04:32:39;;;;;;;23.48;9.18;;;;;;;;;;5044935;28;25085;-60
2023/10/21 04:35:08;;;;;;;15.52;7.72;;;;;;;;;;5037694;28;25079;-60
2023/10/21 04:37:34;;;;;;;17.48;7.43;;;;;;;;;;5032555;28;25109;-61
2023/10/21 04:40:00;;;;;;;17.65;9.07;;;;;;;;;;5038984;28;25168;-61
2023/10/21 04:42:26;;;;;;;18.50;8.43;;;;;;;;;;5032003;28;25085;-61
2023/10/21 04:44:52;;;;;;;21.60;10.00;;;;;;;;;;5030601;28;25065;-60
2023/10/21 04:47:18;;;;;;;17.10;9.20;;;;;;;;;;5036040;28;25087;-61
2023/10/21 04:49:44;;;;;;;18.23;9.13;;;;;;;;;;5041122;28;25087;-61
2023/10/21 04:52:14;;;;;;;18.92;8.20;;;;;;;;;;5034745;28;25167;-60
2023/10/21 04:54:41;;;;;;;21.92;8.88;;;;;;;;;;5039611;28;25141;-60
2023/10/21 04:57:07;;;;;;;16.60;9.07;;;;;;;;;;5039417;28;25053;-60
2023/10/21 04:59:33;;;;;;;25.27;10.20;;;;;;;;;;5038073;28;25089;-60
2023/10/21 05:01:59;;;;;;;21.20;10.23;;;;;;;;;;5035783;28;25077;-60
2023/10/21 05:04:25;;;;;;;19.33;9.48;;;;;;;;;;5037414;28;25064;-63
2023/10/21 05:06:51;;;;;;;19.77;9.75;;;;;;;;;;5036657;28;25107;-60
2023/10/21 05:09:17;;;;;;;19.80;9.75;;;;;;;;;;5042468;28;25049;-60
2023/10/21 05:11:43;;;;;;;17.75;10.77;;;;;;;;;;5044823;28;25048;-60
2023/10/21 05:14:10;;;;;;;24.38;12.88;;;;;;;;;;5044643;28;25109;-60
2023/10/21 05:16:35;;;;;;;22.00;11.32;;;;;;;;;;5042328;28;25067;-61
2023/10/21 05:19:01;;;;;;;20.73;11.18;;;;;;;;;;5042914;28;25061;-59
2023/10/21 05:21:27;;;;;;;24.42;11.82;;;;;;;;;;5032870;28;25063;-60
2023/10/21 05:23:53;;;;;;;23.90;13.48;;;;;;;;;;5042490;28;25084;-60
2023/10/21 05:26:20;;;;;;;27.17;12.80;;;;;;;;;;5043067;28;25074;-60
2023/10/21 05:28:46;;;;;;;27.77;12.52;;;;;;;;;;5038981;28;25043;-60
2023/10/21 05:31:12;;;;;;;15.73;9.32;;;;;;;;;;5043699;28;25064;-62
2023/10/21 05:33:38;;;;;;;22.30;10.10;;;;;;;;;;5044180;28;25056;-60
2023/10/21 05:36:04;;;;;;;18.48;10.13;;;;;;;;;;5042670;28;25159;-59
2023/10/21 05:38:30;;;;;;;17.80;10.00;;;;;;;;;;5043815;28;25089;-59
2023/10/21 05:40:59;;;;;;;17.42;9.10;;;;;;;;;;5041198;28;25133;-60
2023/10/21 05:43:25;;;;;;;21.70;9.05;;;;;;;;;;5041637;28;25096;-60
2023/10/21 05:45:51;;;;;;;16.67;9.80;;;;;;;;;;5044521;28;25143;-60
2023/10/21 05:48:18;;;;;;;19.88;10.02;;;;;;;;;;5039771;28;25077;-59
2023/10/21 05:50:44;;;;;;;17.75;9.82;;;;;;;;;;5044258;28;25045;-59
2023/10/21 05:53:10;;;;;;;22.48;11.27;;;;;;;;;;5044730;28;25077;-59
2023/10/21 05:55:42;;;;;;;16.90;9.90;;;;;;;;;;5043766;28;25063;-61
2023/10/21 05:58:08;;;;;;;;;;;;;;;;;;5044683;28;28086;-61
2023/10/21 06:00:36;;;;;;;17.98;9.07;;;;;;;;;;5044941;28;25089;-60
2023/10/21 06:03:02;;;;;;;20.80;8.77;;;;;;;;;;5041158;28;25121;-61
2023/10/21 06:05:28;;;;;;;15.48;8.00;;;;;;;;;;5040922;28;25112;-59
2023/10/21 06:07:54;;;;;;;14.35;9.00;;;;;;;;;;5042112;28;25149;-60
2023/10/21 06:10:20;;;;;;;19.75;10.85;;;;;;;;;;5043375;28;25055;-62
2023/10/21 06:12:47;;;;;;;17.30;9.13;;;;;;;;;;5043157;28;25084;-60
2023/10/21 06:15:13;;;;;;;18.33;7.38;;;;;;;;;;5039897;28;25043;-60
2023/10/21 06:17:39;;;;;;;12.93;6.43;;;;;;;;;;5041347;28;25058;-60
2023/10/21 06:20:05;;;;;;;19.77;9.75;;;;;;;;;;5047704;28;25054;-60
2023/10/21 06:22:31;;;;;;;13.25;8.57;;;;;;;;;;5041607;28;25074;-60
2023/10/21 06:24:57;;;;;;;15.13;8.90;;;;;;;;;;5035638;28;25101;-60
2023/10/21 06:27:23;;;;;;;20.60;8.75;;;;;;;;;;5043139;28;25064;-60
2023/10/21 06:29:49;;;;;;;20.13;8.70;;;;;;;;;;5046810;28;25076;-60
2023/10/21 06:32:15;;;;;;;22.48;8.88;;;;;;;;;;5041434;28;25073;-59
2023/10/21 06:34:41;;;;;;;17.58;9.38;;;;;;;;;;5043093;28;25143;-60
2023/10/21 06:37:07;;;;;;;18.58;8.85;;;;;;;;;;5043509;28;25052;-60
2023/10/21 06:39:33;;;;;;;22.55;9.50;;;;;;;;;;5042322;28;25140;-61
2023/10/21 06:41:59;;;;;;;22.45;8.98;;;;;;;;;;5040585;28;25077;-60
2023/10/21 06:44:25;;;;;;;20.77;8.63;;;;;;;;;;5042052;28;25054;-60
2023/10/21 06:46:51;;;;;;;10.75;7.22;;;;;;;;;;5038185;28;25155;-59
2023/10/21 06:49:19;;;;;;;17.98;7.90;;;;;;;;;;5040505;28;25176;-59
2023/10/21 06:51:45;;;;;;;11.52;5.85;;;;;;;;;;5048278;28;25053;-61
2023/10/21 06:54:11;;;;;;;16.98;6.95;;;;;;;;;;5051438;28;25143;-60
2023/10/21 06:56:37;;;;;;;15.02;7.80;;;;;;;;;;5045483;28;25099;-61
2023/10/21 06:59:04;;;;;;;12.00;5.88;;;;;;;;;;5047237;28;25119;-61
2023/10/21 07:01:30;;;;;;;10.52;6.97;;;;;;;;;;5047282;28;25152;-60
2023/10/21 07:03:56;;;;;;;10.27;6.88;;;;;;;;;;5046283;28;25108;-60
2023/10/21 07:06:22;;;;;;;15.95;7.25;;;;;;;;;;5045923;28;25139;-60
2023/10/21 07:08:48;;;;;;;14.40;7.53;;;;;;;;;;5046166;28;25048;-61
2023/10/21 07:11:14;;;;;;;10.77;5.50;;;;;;;;;;5046440;28;25062;-61
2023/10/21 07:13:41;;;;;;;8.90;6.00;;;;;;;;;;5046358;28;25077;-61
2023/10/21 07:16:10;;;;;;;11.77;6.70;;;;;;;;;;5043809;28;25127;-60
2023/10/21 07:18:36;;;;;;;15.13;7.40;;;;;;;;;;5044091;28;25145;-60
2023/10/21 07:21:02;;;;;;;14.00;6.88;;;;;;;;;;5046287;28;25099;-61
2023/10/21 07:23:28;;;;;;;9.90;6.35;;;;;;;;;;5044365;28;25064;-63
2023/10/21 07:25:54;;;;;;;15.55;7.13;;;;;;;;;;5045622;28;25061;-61
2023/10/21 07:28:20;;;;;;;10.02;5.35;;;;;;;;;;5043874;28;25096;-61
2023/10/21 07:30:46;;;;;;;9.88;5.55;;;;;;;;;;5045152;28;25089;-62
2023/10/21 07:33:13;;;;;;;10.50;5.07;;;;;;;;;;5046621;28;25081;-62
2023/10/21 07:35:39;;;;;;;7.03;4.35;;;;;;;;;;5042816;28;25132;-61
2023/10/21 07:38:05;;;;;;;7.15;4.72;;;;;;;;;;5044933;28;25071;-62
2023/10/21 07:40:31;;;;;;;8.45;4.93;;;;;;;;;;5045092;28;25112;-61
2023/10/21 07:42:58;;;;;;;13.20;5.80;;;;;;;;;;5051397;28;25064;-61
2023/10/21 07:45:24;;;;;;;9.95;5.13;;;;;;;;;;5042748;28;25137;-60
2023/10/21 07:47:50;;;;;;;9.43;5.88;;;;;;;;;;5045263;28;25354;-60
2023/10/21 07:50:17;;;;;;;8.23;4.75;;;;;;;;;;5042905;28;25065;-62
2023/10/21 07:52:43;;;;;;;6.13;4.45;;;;;;;;;;5038436;28;25057;-61
2023/10/21 07:55:12;;;;;;;10.13;5.88;;;;;;;;;;5047088;28;25152;-60
2023/10/21 07:57:39;;;;;;;7.63;5.35;;;;;;;;;;5037926;28;25098;-60
2023/10/21 08:00:05;;;;;;;6.70;4.70;;;;;;;;;;5045418;28;25065;-61
2023/10/21 08:02:32;;;;;;;7.72;5.55;;;;;;;;;;5039135;28;25185;-61
2023/10/21 08:04:58;;;;;;;5.20;4.03;;;;;;;;;;5036618;28;25063;-62
2023/10/21 08:07:24;;;;;;;4.72;4.15;;;;;;;;;;5060686;28;25093;-59
2023/10/21 08:09:50;;;;;;;6.00;4.18;;;;;;;;;;5045860;28;25079;-59
2023/10/21 08:12:16;;;;;;;5.10;3.90;;;;;;;;;;5041330;28;25065;-60
2023/10/21 08:14:42;;;;;;;6.90;4.38;;;;;;;;;;5045649;28;25064;-59
2023/10/21 08:17:08;;;;;;;3.15;2.58;;;;;;;;;;5046262;28;25135;-60
2023/10/21 08:19:34;;;;;;;4.82;2.97;;;;;;;;;;5043667;28;25103;-60
2023/10/21 08:22:01;;;;;;;2.45;2.25;;;;;;;;;;5043531;28;25158;-61
2023/10/21 08:24:27;;;;;;;4.97;2.03;;;;;;;;;;5044221;28;25155;-61
2023/10/21 08:26:53;;;;;;;9.85;1.25;;;;;;;;;;5043833;28;25131;-61
2023/10/21 08:29:20;;;;;;;3.15;1.33;;;;;;;;;;5041293;28;25054;-60
2023/10/21 08:31:46;;;;;;;2.58;1.23;;;;;;;;;;5039111;28;25097;-60
2023/10/21 08:34:15;;;;;;;4.72;1.35;;;;;;;;;;5042877;28;25092;-59
2023/10/21 08:36:41;;;;;;;2.47;1.67;;;;;;;;;;5042425;28;25123;-60
2023/10/21 08:39:07;;;;;;;8.48;1.52;;;;;;;;;;5028521;28;25081;-59
2023/10/21 08:41:35;;;;;;;6.35;1.38;;;;;;;;;;5034649;28;25063;-61
2023/10/21 08:44:01;;;;;;;7.47;1.75;;;;;;;;;;5041506;28;25107;-63
2023/10/21 08:46:27;;;;;;;5.38;1.02;;;;;;;;;;5040789;28;25096;-60
2023/10/21 08:48:53;;;;;;;5.03;1.42;;;;;;;;;;5039962;28;25073;-59
2023/10/21 08:51:20;;;;;;;1.98;0.77;;;;;;;;;;5042453;28;25138;-60
2023/10/21 08:53:47;;;;;;;3.20;1.00;;;;;;;;;;5029902;28;25062;-60
2023/10/21 08:56:13;;;;;;;3.85;0.70;;;;;;;;;;5033220;28;25075;-61
2023/10/21 08:58:39;;;;;;;2.22;0.98;;;;;;;;;;5046092;28;25048;-61
2023/10/21 09:01:06;;;;;;;5.28;1.55;;;;;;;;;;5044193;28;25074;-60
2023/10/21 09:03:32;;;;;;;5.00;1.10;;;;;;;;;;5042063;28;25076;-60
2023/10/21 09:06:11;;;;;;;4.63;1.48;;;;;;;;;;5046347;28;25060;-62
2023/10/21 09:08:38;;;;;;;1.67;0.68;;;;;;;;;;5040497;28;25150;-59
2023/10/21 09:11:06;;;;;;;2.22;1.15;;;;;;;;;;5032717;28;25047;-60
2023/10/21 09:13:34;;;;;;;3.72;1.17;;;;;;;;;;5028302;28;25092;-60
2023/10/21 09:16:00;;;;;;;4.57;1.30;;;;;;;;;;5043388;28;25051;-60
2023/10/21 09:18:27;;;;;;;5.10;0.93;;;;;;;;;;5040512;28;25064;-61
2023/10/21 09:20:52;;;;;;;3.28;0.90;;;;;;;;;;5038186;28;25091;-61
2023/10/21 09:23:18;;;;;;;3.28;1.00;;;;;;;;;;5042307;28;25158;-60
2023/10/21 09:25:52;;;;;;;2.90;0.90;;;;;;;;;;5041864;28;25152;-59
2023/10/21 09:28:22;;;;;;;3.67;1.00;;;;;;;;;;5043397;28;25072;-61
2023/10/21 09:30:57;;;;;;;4.22;1.15;;;;;;;;;;5038065;28;25065;-60
2023/10/21 09:33:24;;;;;;;3.08;0.85;;;;;;;;;;5038499;28;25064;-60
2023/10/21 09:36:01;;;;;;;3.67;0.90;;;;;;;;;;5039788;28;25056;-60
2023/10/21 09:38:27;;;;;;;7.47;1.13;;;;;;;;;;5044982;28;25066;-60
2023/10/21 09:40:53;;;;;;;3.53;1.10;;;;;;;;;;5036840;28;25048;-61
2023/10/21 09:43:21;;;;;;;4.78;1.15;;;;;;;;;;5038060;28;25077;-59
2023/10/21 09:45:47;;;;;;;3.25;1.25;;;;;;;;;;5040934;28;25134;-59
2023/10/21 09:48:13;;;;;;;5.75;1.27;;;;;;;;;;5043984;28;25083;-60
2023/10/21 09:50:43;;;;;;;4.47;1.08;;;;;;;;;;5017862;28;25190;-59
2023/10/21 09:53:13;;;;;;;7.82;1.58;;;;;;;;;;5027051;28;25125;-60
2023/10/21 09:55:42;;;;;;;3.88;1.00;;;;;;;;;;5040666;28;25052;-60
2023/10/21 09:58:09;;;;;;;4.50;1.20;;;;;;;;;;5037601;28;25137;-59
2023/10/21 10:00:35;;;;;;;3.72;1.00;;;;;;;;;;5039339;28;25056;-59
2023/10/21 10:03:02;;;;;;;3.28;0.95;;;;;;;;;;5029865;28;25053;-59
2023/10/21 10:05:28;;;;;;;3.42;1.02;;;;;;;;;;5040551;28;25070;-60
2023/10/21 10:07:55;;;;;;;5.97;1.08;;;;;;;;;;5036402;28;25101;-60
2023/10/21 10:10:25;;;;;;;5.18;1.13;;;;;;;;;;5040121;28;25141;-58
2023/10/21 10:13:06;;;;;;;5.07;1.48;;;;;;;;;;5041058;28;25143;-60
2023/10/21 10:15:38;;;;;;;3.38;1.35;;;;;;;;;;5038560;28;25059;-58
2023/10/21 10:18:08;;;;;;;8.90;2.28;;;;;;;;;;5035531;28;25042;-58
2023/10/21 10:20:34;;;;;;;4.72;1.17;;;;;;;;;;5038068;28;25059;-59
2023/10/21 10:23:00;;;;;;;3.03;1.10;;;;;;;;;;5039943;28;25060;-59
2023/10/21 10:25:46;;;;;;;7.05;1.63;;;;;;;;;;5038822;28;25064;-58
2023/10/21 10:28:19;;;;;;;5.55;1.52;;;;;;;;;;5050624;28;25074;-58
2023/10/21 10:30:45;;;;;;;5.50;1.40;;;;;;;;;;5042545;28;25062;-60
2023/10/21 10:33:31;;;;;;;5.15;1.33;;;;;;;;;;5046264;28;25125;-59
2023/10/21 10:36:00;;;;;;;5.95;1.27;;;;;;;;;;5034592;28;25185;-59
2023/10/21 10:38:32;;;;;;;8.10;1.40;;;;;;;;;;5045061;28;25053;-59
2023/10/21 10:40:59;;;;;;;5.50;1.45;;;;;;;;;;5040330;28;25073;-60
2023/10/21 10:43:28;;;;;;;3.40;1.40;;;;;;;;;;5042413;28;25085;-60
2023/10/21 10:45:54;;;;;;;10.43;2.03;;;;;;;;;;5037588;28;25073;-60
2023/10/21 10:48:20;;;;;;;5.30;1.38;;;;;;;;;;5044960;28;25062;-58
2023/10/21 10:50:47;;;;;;;6.15;1.67;;;;;;;;;;5044729;28;25124;-59
2023/10/21 10:53:14;;;;;;;7.05;1.58;;;;;;;;;;5045664;28;25096;-60
2023/10/21 10:55:44;;;;;;;6.35;1.50;;;;;;;;;;5041998;28;25048;-60
2023/10/21 10:58:11;;;;;;;9.20;1.90;;;;;;;;;;5040650;28;25136;-60
2023/10/21 11:00:39;;;;;;;8.15;1.85;;;;;;;;;;5039342;28;25074;-59
2023/10/21 11:03:06;;;;;;;7.13;1.27;;;;;;;;;;5046216;28;25074;-60
2023/10/21 11:05:32;;;;;;;10.68;1.77;;;;;;;;;;5041321;28;25052;-60
2023/10/21 11:07:59;;;;;;;8.00;1.63;;;;;;;;;;5046020;28;25095;-59
2023/10/21 11:10:25;;;;;;;7.68;1.70;;;;;;;;;;5039209;28;25048;-59
2023/10/21 11:12:51;;;;;;;6.22;1.52;;;;;;;;;;5044376;28;25050;-60
2023/10/21 11:15:18;;;;;;;5.95;1.73;;;;;;;;;;5028485;28;25081;-59
2023/10/21 11:17:47;;;;;;;4.90;1.52;;;;;;;;;;5032306;28;25065;-59
2023/10/21 11:20:13;;;;;;;14.00;2.08;;;;;;;;;;5044977;28;25051;-59
2023/10/21 11:22:39;;;;;;;5.15;1.25;;;;;;;;;;5045875;28;25052;-59
2023/10/21 11:25:05;;;;;;;7.25;1.75;;;;;;;;;;5046931;28;25172;-59
2023/10/21 11:27:32;;;;;;;7.22;1.70;;;;;;;;;;5041601;28;25082;-59
2023/10/21 11:29:58;;;;;;;7.03;1.73;;;;;;;;;;5040325;28;25062;-60
2023/10/21 11:32:26;;;;;;;11.10;2.20;;;;;;;;;;5040864;28;25074;-59
2023/10/21 11:34:52;;;;;;;7.03;1.67;;;;;;;;;;5032413;28;25065;-59
2023/10/21 11:37:19;;;;;;;7.82;2.08;;;;;;;;;;5044476;28;25082;-59
2023/10/21 11:39:44;;;;;;;10.23;1.85;;;;;;;;;;5044908;28;25084;-61
2023/10/21 11:42:17;;;;;;;7.07;1.42;;;;;;;;;;5043367;28;25057;-59
2023/10/21 11:44:43;;;;;;;10.35;2.25;;;;;;;;;;5043541;28;25046;-60
2023/10/21 11:47:10;;;;;;;13.63;2.17;;;;;;;;;;5041636;28;25077;-59
2023/10/21 11:49:41;;;;;;;9.43;1.85;;;;;;;;;;5044981;28;25139;-60
2023/10/21 11:52:10;;;;;;;8.13;1.90;;;;;;;;;;5045541;28;25136;-59
2023/10/21 11:54:40;;;;;;;9.10;1.95;;;;;;;;;;5039022;28;25084;-60
2023/10/21 12:03:11;;;;;;;5.50;2.03;;;;;;;;;;5045030;28;25071;-59
2023/10/21 12:21:43;;;;;;;10.65;2.55;;;;;;;;;;5042238;28;25148;-60
2023/10/21 12:40:31;;;;;;;9.43;2.33;;;;;;;;;;5039087;28;25150;-60
2023/10/21 12:45:49;;;;;;;12.95;2.20;;;;;;;;;;5042460;28;25174;-60
2023/10/21 12:48:18;;;;;;;13.18;2.53;;;;;;;;;;5042976;28;25211;-60
2023/10/21 12:50:51;;;;;;;14.32;2.55;;;;;;;;;;5043665;28;25055;-59
2023/10/21 12:53:20;;;;;;;10.75;2.47;;;;;;;;;;5042849;28;25062;-60
2023/10/21 12:55:46;;;;;;;12.23;2.10;;;;;;;;;;5040895;28;25127;-60
2023/10/21 12:58:14;;;;;;;12.15;2.50;;;;;;;;;;5039754;28;25118;-60
2023/10/21 13:00:45;;;;;;;10.73;2.63;;;;;;;;;;5044996;28;25108;-60
2023/10/21 13:03:12;;;;;;;11.20;2.55;;;;;;;;;;5044635;28;25051;-58
2023/10/21 13:05:38;;;;;;;12.32;2.50;;;;;;;;;;5041615;28;25096;-59
2023/10/21 13:08:07;;;;;;;19.02;3.22;;;;;;;;;;5043739;28;25120;-59
2023/10/21 13:10:34;;;;;;;14.30;3.30;;;;;;;;;;5044352;28;25071;-62
2023/10/21 13:13:01;;;;;;;13.50;2.17;;;;;;;;;;5044288;28;25067;-59
2023/10/21 13:15:27;;;;;;;12.80;2.60;;;;;;;;;;5041598;28;25088;-60
2023/10/21 13:17:53;;;;;;;12.48;2.80;;;;;;;;;;5044908;28;25141;-60
2023/10/21 13:20:19;;;;;;;13.63;2.83;;;;;;;;;;5047122;28;25063;-60
2023/10/21 13:22:45;;;;;;;12.00;2.10;;;;;;;;;;5047484;28;25164;-60
2023/10/21 13:25:13;;;;;;;18.38;3.97;;;;;;;;;;5038731;28;25113;-59
2023/10/21 13:27:42;;;;;;;11.48;2.15;;;;;;;;;;5046384;28;25133;-60
2023/10/21 13:30:13;;;;;;;13.35;2.90;;;;;;;;;;5043510;28;25050;-60
2023/10/21 13:32:39;;;;;;;15.43;3.47;;;;;;;;;;5044685;28;25069;-59
2023/10/21 13:35:09;;;;;;;12.20;3.05;;;;;;;;;;5040787;28;25059;-57
2023/10/21 13:37:36;;;;;;;15.02;3.58;;;;;;;;;;5043402;28;25166;-59
2023/10/21 13:40:03;;;;;;;19.60;2.70;;;;;;;;;;5039882;28;25115;-59
2023/10/21 13:42:29;;;;;;;16.23;3.15;;;;;;;;;;5043191;28;25068;-59
2023/10/21 13:44:55;;;;;;;6.85;2.08;;;;;;;;;;5045560;28;25070;-59
2023/10/21 13:47:21;;;;;;;12.23;2.63;;;;;;;;;;5047226;28;25188;-59
2023/10/21 13:49:46;;;;;;;8.50;2.30;;;;;;;;;;5046012;28;25064;-59
2023/10/21 13:52:13;;;;;;;11.60;3.00;;;;;;;;;;5034506;28;25142;-59
2023/10/21 13:54:39;;;;;;;12.25;2.50;;;;;;;;;;5046456;28;25079;-59
2023/10/21 13:57:05;;;;;;;12.73;2.75;;;;;;;;;;5037899;28;25130;-60
2023/10/21 13:59:31;;;;;;;11.02;2.33;;;;;;;;;;5043178;28;25095;-59
2023/10/21 14:01:57;;;;;;;15.25;3.40;;;;;;;;;;5037344;28;25167;-60
2023/10/21 14:04:25;;;;;;;12.82;4.15;;;;;;;;;;5034693;28;25079;-59
2023/10/21 14:06:52;;;;;;;19.83;4.22;;;;;;;;;;5032566;28;25057;-59
2023/10/21 14:09:24;;;;;;;15.27;3.22;;;;;;;;;;5039546;28;25181;-60
2023/10/21 14:11:53;;;;;;;12.98;2.92;;;;;;;;;;5040733;28;25064;-60
2023/10/21 14:14:19;;;;;;;10.32;2.30;;;;;;;;;;5038939;28;25119;-60
2023/10/21 14:16:45;;;;;;;14.02;3.40;;;;;;;;;;5037520;28;25143;-58
2023/10/21 14:19:11;;;;;;;18.70;3.25;;;;;;;;;;5030292;28;25114;-59
2023/10/21 14:21:37;;;;;;;15.75;3.03;;;;;;;;;;5034992;28;25088;-60
2023/10/21 14:24:03;;;;;;;9.20;3.58;;;;;;;;;;5040685;28;25136;-60
2023/10/21 14:26:29;;;;;;;14.02;3.33;;;;;;;;;;5030772;28;25140;-60
2023/10/21 14:28:55;;;;;;;16.85;3.92;;;;;;;;;;5014018;28;25128;-60
2023/10/21 14:31:28;;;;;;;16.60;3.35;;;;;;;;;;5020033;28;25059;-60
2023/10/21 14:33:56;;;;;;;18.40;3.33;;;;;;;;;;5021596;28;25056;-59
2023/10/21 14:36:22;;;;;;;18.63;3.60;;;;;;;;;;5041555;28;25064;-60
2023/10/21 14:38:49;;;;;;;14.52;3.40;;;;;;;;;;5040379;28;25048;-62
2023/10/21 14:41:15;;;;;;;16.95;3.55;;;;;;;;;;5045853;28;25056;-60
2023/10/21 14:43:42;;;;;;;21.05;3.25;;;;;;;;;;5032095;28;25145;-60
2023/10/21 14:46:09;;;;;;;15.25;4.25;;;;;;;;;;5030775;28;25051;-60
2023/10/21 14:48:35;;;;;;;22.45;4.22;;;;;;;;;;5036959;28;25083;-60
2023/10/21 14:51:01;;;;;;;15.98;4.28;;;;;;;;;;5041822;28;25073;-60
2023/10/21 14:53:27;;;;;;;19.60;4.20;;;;;;;;;;5033443;28;25071;-60
2023/10/21 14:55:53;;;;;;;22.42;4.00;;;;;;;;;;5042141;28;25063;-60
2023/10/21 14:58:22;;;;;;;21.15;3.65;;;;;;;;;;5041308;28;25106;-59
2023/10/21 15:00:48;;;;;;;15.00;3.45;;;;;;;;;;5043122;28;25140;-60
2023/10/21 15:03:19;;;;;;;15.23;3.70;;;;;;;;;;5043628;28;25083;-60
2023/10/21 15:05:46;;;;;;;13.90;3.65;;;;;;;;;;5041862;28;25065;-62
2023/10/21 15:08:13;;;;;;;12.80;3.53;;;;;;;;;;5035607;28;25090;-61
2023/10/21 15:10:39;;;;;;;14.20;3.00;;;;;;;;;;5040704;28;25067;-60